sensor_id;sensor_type;location;lat;lon;timestamp;temperature;humidity
61323;DHT22;47203;48.428;11.974;2024-02-21T00:00:29;9.90;55.30
61323;DHT22;47203;48.428;11.974;2024-02-21T00:02:32;10.00;55.40
61323;DHT22;47203;48.428;11.974;2024-02-21T00:04:36;10.00;55.40
61323;DHT22;47203;48.428;11.974;2024-02-21T00:06:40;10.00;55.30
61323;DHT22;47203;48.428;11.974;2024-02-21T00:08:45;10.00;55.30
61323;DHT22;47203;48.428;11.974;2024-02-21T00:10:49;10.00;55.30
61323;DHT22;47203;48.428;11.974;2024-02-21T00:12:52;10.00;55.30
61323;DHT22;47203;48.428;11.974;2024-02-21T00:14:56;10.00;55.20
61323;DHT22;47203;48.428;11.974;2024-02-21T00:17:01;10.00;55.20
61323;DHT22;47203;48.428;11.974;2024-02-21T00:19:03;9.90;55.20
61323;DHT22;47203;48.428;11.974;2024-02-21T00:21:07;9.90;55.20
61323;DHT22;47203;48.428;11.974;2024-02-21T00:23:10;9.90;55.20
61323;DHT22;47203;48.428;11.974;2024-02-21T00:25:14;9.90;55.20
61323;DHT22;47203;48.428;11.974;2024-02-21T00:27:17;9.90;55.20
61323;DHT22;47203;48.428;11.974;2024-02-21T00:29:20;9.90;55.20
61323;DHT22;47203;48.428;11.974;2024-02-21T00:31:24;9.90;55.30
61323;DHT22;47203;48.428;11.974;2024-02-21T00:33:29;9.90;55.30
61323;DHT22;47203;48.428;11.974;2024-02-21T00:35:33;10.00;55.40
61323;DHT22;47203;48.428;11.974;2024-02-21T00:37:37;9.90;55.30
61323;DHT22;47203;48.428;11.974;2024-02-21T00:39:40;9.90;55.30
61323;DHT22;47203;48.428;11.974;2024-02-21T00:41:44;9.90;55.30
61323;DHT22;47203;48.428;11.974;2024-02-21T00:43:47;9.90;55.30
61323;DHT22;47203;48.428;11.974;2024-02-21T00:45:52;9.90;55.30
61323;DHT22;47203;48.428;11.974;2024-02-21T00:47:56;9.90;55.30
61323;DHT22;47203;48.428;11.974;2024-02-21T00:50:01;9.90;55.30
61323;DHT22;47203;48.428;11.974;2024-02-21T00:52:07;9.90;55.30
61323;DHT22;47203;48.428;11.974;2024-02-21T00:54:10;9.90;55.30
61323;DHT22;47203;48.428;11.974;2024-02-21T00:56:13;10.00;55.40
61323;DHT22;47203;48.428;11.974;2024-02-21T00:58:18;9.90;55.30
61323;DHT22;47203;48.428;11.974;2024-02-21T01:00:22;10.00;55.40
61323;DHT22;47203;48.428;11.974;2024-02-21T01:02:25;10.00;55.40
61323;DHT22;47203;48.428;11.974;2024-02-21T01:04:29;9.90;55.30
61323;DHT22;47203;48.428;11.974;2024-02-21T01:06:33;9.90;55.30
61323;DHT22;47203;48.428;11.974;2024-02-21T01:08:36;9.90;55.40
61323;DHT22;47203;48.428;11.974;2024-02-21T01:10:39;10.00;55.40
61323;DHT22;47203;48.428;11.974;2024-02-21T01:12:42;10.00;55.40
61323;DHT22;47203;48.428;11.974;2024-02-21T01:14:46;10.00;55.40
61323;DHT22;47203;48.428;11.974;2024-02-21T01:16:51;10.00;55.40
61323;DHT22;47203;48.428;11.974;2024-02-21T01:18:54;10.00;55.40
61323;DHT22;47203;48.428;11.974;2024-02-21T01:20:58;10.00;55.50
61323;DHT22;47203;48.428;11.974;2024-02-21T01:23:03;9.90;55.40
61323;DHT22;47203;48.428;11.974;2024-02-21T01:25:08;10.00;55.50
61323;DHT22;47203;48.428;11.974;2024-02-21T01:27:11;9.90;55.40
61323;DHT22;47203;48.428;11.974;2024-02-21T01:29:14;9.90;55.40
61323;DHT22;47203;48.428;11.974;2024-02-21T01:31:17;10.10;55.50
61323;DHT22;47203;48.428;11.974;2024-02-21T01:33:21;9.90;55.50
61323;DHT22;47203;48.428;11.974;2024-02-21T01:35:24;9.90;55.50
61323;DHT22;47203;48.428;11.974;2024-02-21T01:37:28;9.80;55.50
61323;DHT22;47203;48.428;11.974;2024-02-21T01:39:32;9.90;55.60
61323;DHT22;47203;48.428;11.974;2024-02-21T01:41:36;9.80;55.70
61323;DHT22;47203;48.428;11.974;2024-02-21T01:43:39;9.80;55.70
61323;DHT22;47203;48.428;11.974;2024-02-21T01:45:43;9.80;55.70
61323;DHT22;47203;48.428;11.974;2024-02-21T01:47:50;9.80;55.70
61323;DHT22;47203;48.428;11.974;2024-02-21T01:49:54;9.70;55.70
61323;DHT22;47203;48.428;11.974;2024-02-21T01:51:57;9.70;55.80
61323;DHT22;47203;48.428;11.974;2024-02-21T01:54:01;9.70;55.90
61323;DHT22;47203;48.428;11.974;2024-02-21T01:56:07;9.70;56.00
61323;DHT22;47203;48.428;11.974;2024-02-21T01:58:11;9.60;56.00
61323;DHT22;47203;48.428;11.974;2024-02-21T02:00:16;9.60;56.10
61323;DHT22;47203;48.428;11.974;2024-02-21T02:02:21;9.60;56.10
61323;DHT22;47203;48.428;11.974;2024-02-21T02:04:25;9.60;56.20
61323;DHT22;47203;48.428;11.974;2024-02-21T02:06:30;9.60;56.30
61323;DHT22;47203;48.428;11.974;2024-02-21T02:08:34;9.60;56.30
61323;DHT22;47203;48.428;11.974;2024-02-21T02:10:38;9.60;56.30
61323;DHT22;47203;48.428;11.974;2024-02-21T02:12:45;9.60;56.40
61323;DHT22;47203;48.428;11.974;2024-02-21T02:14:58;9.60;56.40
61323;DHT22;47203;48.428;11.974;2024-02-21T02:17:00;9.60;56.60
61323;DHT22;47203;48.428;11.974;2024-02-21T02:19:04;9.60;56.40
61323;DHT22;47203;48.428;11.974;2024-02-21T02:21:23;9.60;57.10
61323;DHT22;47203;48.428;11.974;2024-02-21T02:23:33;9.60;56.50
61323;DHT22;47203;48.428;11.974;2024-02-21T02:25:38;9.60;56.50
61323;DHT22;47203;48.428;11.974;2024-02-21T02:27:42;9.60;56.40
61323;DHT22;47203;48.428;11.974;2024-02-21T02:29:47;9.60;56.50
61323;DHT22;47203;48.428;11.974;2024-02-21T02:31:50;9.60;56.50
61323;DHT22;47203;48.428;11.974;2024-02-21T02:33:54;9.60;56.50
61323;DHT22;47203;48.428;11.974;2024-02-21T02:35:57;9.60;56.50
61323;DHT22;47203;48.428;11.974;2024-02-21T02:38:00;9.60;56.50
61323;DHT22;47203;48.428;11.974;2024-02-21T02:40:06;9.60;56.50
61323;DHT22;47203;48.428;11.974;2024-02-21T02:42:10;9.60;56.60
61323;DHT22;47203;48.428;11.974;2024-02-21T02:44:14;9.60;56.50
61323;DHT22;47203;48.428;11.974;2024-02-21T02:46:18;9.60;56.50
61323;DHT22;47203;48.428;11.974;2024-02-21T02:48:21;9.60;56.50
61323;DHT22;47203;48.428;11.974;2024-02-21T02:50:25;9.60;56.50
61323;DHT22;47203;48.428;11.974;2024-02-21T02:52:29;9.60;56.50
61323;DHT22;47203;48.428;11.974;2024-02-21T02:54:33;9.60;56.50
61323;DHT22;47203;48.428;11.974;2024-02-21T02:56:38;9.60;56.50
61323;DHT22;47203;48.428;11.974;2024-02-21T02:58:40;9.60;56.60
61323;DHT22;47203;48.428;11.974;2024-02-21T03:00:44;9.60;56.50
61323;DHT22;47203;48.428;11.974;2024-02-21T03:02:49;9.60;56.60
61323;DHT22;47203;48.428;11.974;2024-02-21T03:04:53;9.60;56.60
61323;DHT22;47203;48.428;11.974;2024-02-21T03:06:56;9.60;57.20
61323;DHT22;47203;48.428;11.974;2024-02-21T03:09:00;9.60;56.70
61323;DHT22;47203;48.428;11.974;2024-02-21T03:11:03;9.60;56.70
61323;DHT22;47203;48.428;11.974;2024-02-21T03:13:08;9.60;56.70
61323;DHT22;47203;48.428;11.974;2024-02-21T03:15:12;9.60;56.70
61323;DHT22;47203;48.428;11.974;2024-02-21T03:17:17;9.60;56.70
61323;DHT22;47203;48.428;11.974;2024-02-21T03:19:20;9.60;56.70
61323;DHT22;47203;48.428;11.974;2024-02-21T03:21:24;9.60;56.80
61323;DHT22;47203;48.428;11.974;2024-02-21T03:23:27;9.60;56.70
61323;DHT22;47203;48.428;11.974;2024-02-21T03:25:31;9.60;56.80
61323;DHT22;47203;48.428;11.974;2024-02-21T03:27:35;9.60;56.90
61323;DHT22;47203;48.428;11.974;2024-02-21T03:29:40;9.60;56.90
61323;DHT22;47203;48.428;11.974;2024-02-21T03:31:43;9.60;57.00
61323;DHT22;47203;48.428;11.974;2024-02-21T03:33:47;9.60;57.00
61323;DHT22;47203;48.428;11.974;2024-02-21T03:35:49;9.60;57.00
61323;DHT22;47203;48.428;11.974;2024-02-21T03:37:53;9.60;57.00
61323;DHT22;47203;48.428;11.974;2024-02-21T03:39:57;9.60;57.00
61323;DHT22;47203;48.428;11.974;2024-02-21T03:42:02;9.60;57.00
61323;DHT22;47203;48.428;11.974;2024-02-21T03:44:06;9.60;57.10
61323;DHT22;47203;48.428;11.974;2024-02-21T03:46:12;9.60;57.10
61323;DHT22;47203;48.428;11.974;2024-02-21T03:48:15;9.60;57.10
61323;DHT22;47203;48.428;11.974;2024-02-21T03:50:19;9.60;57.10
61323;DHT22;47203;48.428;11.974;2024-02-21T03:52:24;9.60;57.10
61323;DHT22;47203;48.428;11.974;2024-02-21T03:54:27;9.60;57.10
61323;DHT22;47203;48.428;11.974;2024-02-21T03:56:30;9.60;57.10
61323;DHT22;47203;48.428;11.974;2024-02-21T03:58:34;9.60;57.10
61323;DHT22;47203;48.428;11.974;2024-02-21T04:00:37;9.60;57.10
61323;DHT22;47203;48.428;11.974;2024-02-21T04:02:43;9.60;57.20
61323;DHT22;47203;48.428;11.974;2024-02-21T04:04:46;9.60;57.20
61323;DHT22;47203;48.428;11.974;2024-02-21T04:06:51;9.60;57.20
61323;DHT22;47203;48.428;11.974;2024-02-21T04:08:55;9.60;57.20
61323;DHT22;47203;48.428;11.974;2024-02-21T04:10:59;9.60;57.20
61323;DHT22;47203;48.428;11.974;2024-02-21T04:13:03;9.50;57.20
61323;DHT22;47203;48.428;11.974;2024-02-21T04:15:08;9.50;57.20
61323;DHT22;47203;48.428;11.974;2024-02-21T04:17:12;9.60;57.30
61323;DHT22;47203;48.428;11.974;2024-02-21T04:19:16;9.60;57.30
61323;DHT22;47203;48.428;11.974;2024-02-21T04:21:19;9.50;57.40
61323;DHT22;47203;48.428;11.974;2024-02-21T04:23:21;9.50;57.40
61323;DHT22;47203;48.428;11.974;2024-02-21T04:25:25;9.60;57.40
61323;DHT22;47203;48.428;11.974;2024-02-21T04:27:28;9.60;57.50
61323;DHT22;47203;48.428;11.974;2024-02-21T04:29:32;9.50;57.40
61323;DHT22;47203;48.428;11.974;2024-02-21T04:31:36;9.60;57.50
61323;DHT22;47203;48.428;11.974;2024-02-21T04:33:39;9.60;57.50
61323;DHT22;47203;48.428;11.974;2024-02-21T04:35:43;9.60;57.50
61323;DHT22;47203;48.428;11.974;2024-02-21T04:37:47;9.60;57.50
61323;DHT22;47203;48.428;11.974;2024-02-21T04:39:50;9.70;58.10
61323;DHT22;47203;48.428;11.974;2024-02-21T04:41:54;9.60;57.40
61323;DHT22;47203;48.428;11.974;2024-02-21T04:43:57;9.60;57.40
61323;DHT22;47203;48.428;11.974;2024-02-21T04:46:01;9.60;57.40
61323;DHT22;47203;48.428;11.974;2024-02-21T04:48:05;9.60;57.30
61323;DHT22;47203;48.428;11.974;2024-02-21T04:50:09;9.70;57.30
61323;DHT22;47203;48.428;11.974;2024-02-21T04:52:14;9.70;57.30
61323;DHT22;47203;48.428;11.974;2024-02-21T04:54:17;9.70;57.30
61323;DHT22;47203;48.428;11.974;2024-02-21T04:56:21;9.70;57.30
61323;DHT22;47203;48.428;11.974;2024-02-21T04:58:24;9.70;57.30
61323;DHT22;47203;48.428;11.974;2024-02-21T05:00:27;9.80;57.30
61323;DHT22;47203;48.428;11.974;2024-02-21T05:02:31;9.70;57.20
61323;DHT22;47203;48.428;11.974;2024-02-21T05:04:34;9.70;57.20
61323;DHT22;47203;48.428;11.974;2024-02-21T05:06:41;9.60;57.10
61323;DHT22;47203;48.428;11.974;2024-02-21T05:08:47;9.60;57.10
61323;DHT22;47203;48.428;11.974;2024-02-21T05:10:50;9.60;57.10
61323;DHT22;47203;48.428;11.974;2024-02-21T05:12:54;9.60;57.10
61323;DHT22;47203;48.428;11.974;2024-02-21T05:14:57;9.60;57.10
61323;DHT22;47203;48.428;11.974;2024-02-21T05:17:01;9.60;57.20
61323;DHT22;47203;48.428;11.974;2024-02-21T05:19:04;9.50;57.20
61323;DHT22;47203;48.428;11.974;2024-02-21T05:21:09;9.50;57.30
61323;DHT22;47203;48.428;11.974;2024-02-21T05:23:13;9.50;57.30
61323;DHT22;47203;48.428;11.974;2024-02-21T05:25:17;9.50;57.30
61323;DHT22;47203;48.428;11.974;2024-02-21T05:27:20;9.50;57.40
61323;DHT22;47203;48.428;11.974;2024-02-21T05:29:24;9.50;57.30
61323;DHT22;47203;48.428;11.974;2024-02-21T05:31:43;9.50;57.30
61323;DHT22;47203;48.428;11.974;2024-02-21T05:33:58;9.50;57.60
61323;DHT22;47203;48.428;11.974;2024-02-21T05:36:06;9.50;57.30
61323;DHT22;47203;48.428;11.974;2024-02-21T05:38:10;9.50;57.40
61323;DHT22;47203;48.428;11.974;2024-02-21T05:40:14;9.40;57.40
61323;DHT22;47203;48.428;11.974;2024-02-21T05:42:19;9.40;57.40
61323;DHT22;47203;48.428;11.974;2024-02-21T05:44:22;9.40;57.60
61323;DHT22;47203;48.428;11.974;2024-02-21T05:46:29;9.40;57.50
61323;DHT22;47203;48.428;11.974;2024-02-21T05:48:32;9.40;57.50
61323;DHT22;47203;48.428;11.974;2024-02-21T05:50:40;9.40;57.50
61323;DHT22;47203;48.428;11.974;2024-02-21T05:52:44;9.40;57.50
61323;DHT22;47203;48.428;11.974;2024-02-21T05:54:47;9.30;57.50
61323;DHT22;47203;48.428;11.974;2024-02-21T05:56:52;9.30;57.50
61323;DHT22;47203;48.428;11.974;2024-02-21T05:58:56;9.40;57.50
61323;DHT22;47203;48.428;11.974;2024-02-21T06:01:00;9.30;57.50
61323;DHT22;47203;48.428;11.974;2024-02-21T06:03:05;9.30;57.50
61323;DHT22;47203;48.428;11.974;2024-02-21T06:05:08;9.30;57.40
61323;DHT22;47203;48.428;11.974;2024-02-21T06:07:12;9.40;57.50
61323;DHT22;47203;48.428;11.974;2024-02-21T06:09:15;9.30;57.50
61323;DHT22;47203;48.428;11.974;2024-02-21T06:11:20;9.30;57.50
61323;DHT22;47203;48.428;11.974;2024-02-21T06:13:24;9.30;57.40
61323;DHT22;47203;48.428;11.974;2024-02-21T06:15:28;9.30;57.40
61323;DHT22;47203;48.428;11.974;2024-02-21T06:17:32;9.30;57.40
61323;DHT22;47203;48.428;11.974;2024-02-21T06:19:35;9.30;57.40
61323;DHT22;47203;48.428;11.974;2024-02-21T06:21:39;9.40;57.50
61323;DHT22;47203;48.428;11.974;2024-02-21T06:23:41;9.40;57.40
61323;DHT22;47203;48.428;11.974;2024-02-21T06:25:45;9.40;57.30
61323;DHT22;47203;48.428;11.974;2024-02-21T06:27:49;9.40;57.30
61323;DHT22;47203;48.428;11.974;2024-02-21T06:29:53;9.40;57.30
61323;DHT22;47203;48.428;11.974;2024-02-21T06:31:56;9.40;57.20
61323;DHT22;47203;48.428;11.974;2024-02-21T06:34:00;9.40;57.10
61323;DHT22;47203;48.428;11.974;2024-02-21T06:36:05;9.40;57.10
61323;DHT22;47203;48.428;11.974;2024-02-21T06:38:08;9.40;57.10
61323;DHT22;47203;48.428;11.974;2024-02-21T06:40:12;9.40;57.10
61323;DHT22;47203;48.428;11.974;2024-02-21T06:42:15;9.40;57.10
61323;DHT22;47203;48.428;11.974;2024-02-21T06:44:19;9.30;57.10
61323;DHT22;47203;48.428;11.974;2024-02-21T06:46:24;9.30;57.10
61323;DHT22;47203;48.428;11.974;2024-02-21T06:48:29;9.30;57.10
61323;DHT22;47203;48.428;11.974;2024-02-21T06:50:33;9.40;57.10
61323;DHT22;47203;48.428;11.974;2024-02-21T06:52:36;9.40;57.10
61323;DHT22;47203;48.428;11.974;2024-02-21T06:54:40;9.30;57.10
61323;DHT22;47203;48.428;11.974;2024-02-21T06:56:43;9.40;57.30
61323;DHT22;47203;48.428;11.974;2024-02-21T06:58:46;9.40;57.30
61323;DHT22;47203;48.428;11.974;2024-02-21T07:00:50;9.40;57.40
61323;DHT22;47203;48.428;11.974;2024-02-21T07:02:54;9.50;57.50
61323;DHT22;47203;48.428;11.974;2024-02-21T07:04:58;9.60;57.40
61323;DHT22;47203;48.428;11.974;2024-02-21T07:07:01;9.60;57.40
61323;DHT22;47203;48.428;11.974;2024-02-21T07:09:05;9.60;57.20
61323;DHT22;47203;48.428;11.974;2024-02-21T07:11:11;9.70;57.10
61323;DHT22;47203;48.428;11.974;2024-02-21T07:13:14;9.70;57.00
61323;DHT22;47203;48.428;11.974;2024-02-21T07:15:19;9.70;56.90
61323;DHT22;47203;48.428;11.974;2024-02-21T07:17:22;9.70;56.80
61323;DHT22;47203;48.428;11.974;2024-02-21T07:19:25;9.70;56.70
61323;DHT22;47203;48.428;11.974;2024-02-21T07:21:29;9.80;56.80
61323;DHT22;47203;48.428;11.974;2024-02-21T07:23:32;9.80;56.80
61323;DHT22;47203;48.428;11.974;2024-02-21T07:25:36;9.70;56.70
61323;DHT22;47203;48.428;11.974;2024-02-21T07:27:39;9.70;56.80
61323;DHT22;47203;48.428;11.974;2024-02-21T07:29:43;9.70;56.80
61323;DHT22;47203;48.428;11.974;2024-02-21T07:31:50;9.70;56.80
61323;DHT22;47203;48.428;11.974;2024-02-21T07:33:55;9.80;56.90
61323;DHT22;47203;48.428;11.974;2024-02-21T07:35:59;9.80;56.90
61323;DHT22;47203;48.428;11.974;2024-02-21T07:38:04;9.80;56.90
61323;DHT22;47203;48.428;11.974;2024-02-21T07:40:12;9.80;57.00
61323;DHT22;47203;48.428;11.974;2024-02-21T07:42:17;9.80;56.90
61323;DHT22;47203;48.428;11.974;2024-02-21T07:44:20;9.90;57.40
61323;DHT22;47203;48.428;11.974;2024-02-21T07:46:24;10.00;57.00
61323;DHT22;47203;48.428;11.974;2024-02-21T07:48:26;9.90;56.90
61323;DHT22;47203;48.428;11.974;2024-02-21T07:50:33;10.00;57.00
61323;DHT22;47203;48.428;11.974;2024-02-21T07:52:36;10.00;56.90
61323;DHT22;47203;48.428;11.974;2024-02-21T07:54:41;10.00;56.80
61323;DHT22;47203;48.428;11.974;2024-02-21T07:56:45;10.10;56.80
61323;DHT22;47203;48.428;11.974;2024-02-21T07:58:49;10.10;56.80
61323;DHT22;47203;48.428;11.974;2024-02-21T08:00:53;10.20;56.80
61323;DHT22;47203;48.428;11.974;2024-02-21T08:02:57;10.20;56.70
61323;DHT22;47203;48.428;11.974;2024-02-21T08:05:00;10.30;56.60
61323;DHT22;47203;48.428;11.974;2024-02-21T08:07:05;10.30;56.50
61323;DHT22;47203;48.428;11.974;2024-02-21T08:09:09;10.40;56.50
61323;DHT22;47203;48.428;11.974;2024-02-21T08:11:13;10.40;56.50
61323;DHT22;47203;48.428;11.974;2024-02-21T08:13:17;10.50;56.40
61323;DHT22;47203;48.428;11.974;2024-02-21T08:15:23;10.60;56.30
61323;DHT22;47203;48.428;11.974;2024-02-21T08:17:30;10.60;56.20
61323;DHT22;47203;48.428;11.974;2024-02-21T08:19:33;10.70;56.10
61323;DHT22;47203;48.428;11.974;2024-02-21T08:21:37;10.70;55.90
61323;DHT22;47203;48.428;11.974;2024-02-21T08:23:40;10.80;55.80
61323;DHT22;47203;48.428;11.974;2024-02-21T08:25:45;10.80;55.80
61323;DHT22;47203;48.428;11.974;2024-02-21T08:27:50;10.90;56.00
61323;DHT22;47203;48.428;11.974;2024-02-21T08:29:53;11.00;56.00
61323;DHT22;47203;48.428;11.974;2024-02-21T08:31:56;11.20;55.90
61323;DHT22;47203;48.428;11.974;2024-02-21T08:34:00;11.40;55.60
61323;DHT22;47203;48.428;11.974;2024-02-21T08:36:06;11.50;55.50
61323;DHT22;47203;48.428;11.974;2024-02-21T08:38:10;11.80;55.30
61323;DHT22;47203;48.428;11.974;2024-02-21T08:40:15;11.90;55.10
61323;DHT22;47203;48.428;11.974;2024-02-21T08:42:22;12.10;54.90
61323;DHT22;47203;48.428;11.974;2024-02-21T08:44:28;12.40;55.00
61323;DHT22;47203;48.428;11.974;2024-02-21T08:46:31;12.60;54.70
61323;DHT22;47203;48.428;11.974;2024-02-21T08:48:34;12.90;54.50
61323;DHT22;47203;48.428;11.974;2024-02-21T08:50:39;13.20;54.10
61323;DHT22;47203;48.428;11.974;2024-02-21T08:52:42;13.50;53.70
61323;DHT22;47203;48.428;11.974;2024-02-21T08:54:46;13.80;53.50
61323;DHT22;47203;48.428;11.974;2024-02-21T08:56:49;14.10;53.50
61323;DHT22;47203;48.428;11.974;2024-02-21T08:58:53;14.30;53.40
61323;DHT22;47203;48.428;11.974;2024-02-21T09:00:58;14.70;52.90
61323;DHT22;47203;48.428;11.974;2024-02-21T09:03:01;15.10;52.30
61323;DHT22;47203;48.428;11.974;2024-02-21T09:05:06;15.30;51.90
61323;DHT22;47203;48.428;11.974;2024-02-21T09:07:10;15.60;51.20
61323;DHT22;47203;48.428;11.974;2024-02-21T09:09:14;15.80;50.70
61323;DHT22;47203;48.428;11.974;2024-02-21T09:11:17;16.00;50.20
61323;DHT22;47203;48.428;11.974;2024-02-21T09:13:21;16.20;50.10
61323;DHT22;47203;48.428;11.974;2024-02-21T09:15:25;16.40;49.80
61323;DHT22;47203;48.428;11.974;2024-02-21T09:17:31;16.60;49.40
61323;DHT22;47203;48.428;11.974;2024-02-21T09:19:35;16.80;48.70
61323;DHT22;47203;48.428;11.974;2024-02-21T09:21:39;17.00;48.70
61323;DHT22;47203;48.428;11.974;2024-02-21T09:23:42;17.20;48.10
61323;DHT22;47203;48.428;11.974;2024-02-21T09:25:45;17.30;47.50
61323;DHT22;47203;48.428;11.974;2024-02-21T09:27:49;17.40;47.10
61323;DHT22;47203;48.428;11.974;2024-02-21T09:29:54;17.60;47.10
61323;DHT22;47203;48.428;11.974;2024-02-21T09:31:56;17.70;46.70
61323;DHT22;47203;48.428;11.974;2024-02-21T09:34:01;17.80;46.60
61323;DHT22;47203;48.428;11.974;2024-02-21T09:36:06;17.90;45.90
61323;DHT22;47203;48.428;11.974;2024-02-21T09:38:09;18.00;45.80
61323;DHT22;47203;48.428;11.974;2024-02-21T09:40:15;18.20;45.60
61323;DHT22;47203;48.428;11.974;2024-02-21T09:42:20;18.30;45.00
61323;DHT22;47203;48.428;11.974;2024-02-21T09:44:24;18.40;44.60
61323;DHT22;47203;48.428;11.974;2024-02-21T09:46:42;18.50;44.80
61323;DHT22;47203;48.428;11.974;2024-02-21T09:49:13;18.70;43.90
61323;DHT22;47203;48.428;11.974;2024-02-21T09:51:32;18.80;43.60
61323;DHT22;47203;48.428;11.974;2024-02-21T09:53:38;19.00;44.50
61323;DHT22;47203;48.428;11.974;2024-02-21T09:55:49;19.20;44.20
61323;DHT22;47203;48.428;11.974;2024-02-21T09:57:53;19.30;44.40
61323;DHT22;47203;48.428;11.974;2024-02-21T09:59:57;19.50;43.60
61323;DHT22;47203;48.428;11.974;2024-02-21T10:02:02;19.70;43.80
61323;DHT22;47203;48.428;11.974;2024-02-21T10:04:08;19.90;43.00
61323;DHT22;47203;48.428;11.974;2024-02-21T10:06:11;20.10;42.30
61323;DHT22;47203;48.428;11.974;2024-02-21T10:08:15;20.30;42.10
61323;DHT22;47203;48.428;11.974;2024-02-21T10:10:19;20.40;41.70
61323;DHT22;47203;48.428;11.974;2024-02-21T10:12:24;20.50;41.60
61323;DHT22;47203;48.428;11.974;2024-02-21T10:14:27;20.60;41.30
61323;DHT22;47203;48.428;11.974;2024-02-21T10:16:31;20.70;40.90
61323;DHT22;47203;48.428;11.974;2024-02-21T10:18:35;20.90;41.10
61323;DHT22;47203;48.428;11.974;2024-02-21T10:20:40;21.10;41.00
61323;DHT22;47203;48.428;11.974;2024-02-21T10:22:45;21.30;40.20
61323;DHT22;47203;48.428;11.974;2024-02-21T10:24:49;21.50;40.30
61323;DHT22;47203;48.428;11.974;2024-02-21T10:26:59;21.60;39.90
61323;DHT22;47203;48.428;11.974;2024-02-21T10:29:05;21.80;38.30
61323;DHT22;47203;48.428;11.974;2024-02-21T10:31:09;21.90;39.60
61323;DHT22;47203;48.428;11.974;2024-02-21T10:33:15;22.10;39.30
61323;DHT22;47203;48.428;11.974;2024-02-21T10:35:26;22.30;38.40
61323;DHT22;47203;48.428;11.974;2024-02-21T10:37:33;22.40;38.30
61323;DHT22;47203;48.428;11.974;2024-02-21T10:39:38;22.60;38.50
61323;DHT22;47203;48.428;11.974;2024-02-21T10:41:42;22.80;38.00
61323;DHT22;47203;48.428;11.974;2024-02-21T10:43:51;22.90;37.50
61323;DHT22;47203;48.428;11.974;2024-02-21T10:45:59;23.10;36.60
61323;DHT22;47203;48.428;11.974;2024-02-21T10:48:10;23.20;36.90
61323;DHT22;47203;48.428;11.974;2024-02-21T10:50:15;23.40;36.60
61323;DHT22;47203;48.428;11.974;2024-02-21T10:52:29;23.50;37.00
61323;DHT22;47203;48.428;11.974;2024-02-21T10:54:50;23.70;36.00
61323;DHT22;47203;48.428;11.974;2024-02-21T10:57:00;23.80;35.90
61323;DHT22;47203;48.428;11.974;2024-02-21T10:59:07;24.00;35.70
61323;DHT22;47203;48.428;11.974;2024-02-21T11:01:12;24.00;35.30
61323;DHT22;47203;48.428;11.974;2024-02-21T11:03:17;24.10;35.60
61323;DHT22;47203;48.428;11.974;2024-02-21T11:05:21;24.20;35.20
61323;DHT22;47203;48.428;11.974;2024-02-21T11:07:26;24.20;34.70
61323;DHT22;47203;48.428;11.974;2024-02-21T11:09:32;24.30;34.50
61323;DHT22;47203;48.428;11.974;2024-02-21T11:11:38;24.30;34.50
61323;DHT22;47203;48.428;11.974;2024-02-21T11:13:43;24.20;34.00
61323;DHT22;47203;48.428;11.974;2024-02-21T11:15:48;24.20;34.20
61323;DHT22;47203;48.428;11.974;2024-02-21T11:17:55;24.10;34.00
61323;DHT22;47203;48.428;11.974;2024-02-21T11:20:11;24.10;33.40
61323;DHT22;47203;48.428;11.974;2024-02-21T11:22:16;24.00;33.10
61323;DHT22;47203;48.428;11.974;2024-02-21T11:24:27;23.90;34.30
61323;DHT22;47203;48.428;11.974;2024-02-21T11:26:33;23.90;32.90
61323;DHT22;47203;48.428;11.974;2024-02-21T11:28:39;23.80;33.80
61323;DHT22;47203;48.428;11.974;2024-02-21T11:30:45;23.90;34.30
61323;DHT22;47203;48.428;11.974;2024-02-21T11:32:49;23.90;34.40
61323;DHT22;47203;48.428;11.974;2024-02-21T11:34:55;24.00;34.20
61323;DHT22;47203;48.428;11.974;2024-02-21T11:37:13;24.10;33.30
61323;DHT22;47203;48.428;11.974;2024-02-21T11:39:20;24.30;33.00
61323;DHT22;47203;48.428;11.974;2024-02-21T11:41:25;24.30;33.60
61323;DHT22;47203;48.428;11.974;2024-02-21T11:43:30;24.40;33.30
61323;DHT22;47203;48.428;11.974;2024-02-21T11:45:33;24.50;33.00
61323;DHT22;47203;48.428;11.974;2024-02-21T11:47:37;24.60;33.30
61323;DHT22;47203;48.428;11.974;2024-02-21T11:49:44;24.60;33.30
61323;DHT22;47203;48.428;11.974;2024-02-21T11:51:49;24.70;32.80
61323;DHT22;47203;48.428;11.974;2024-02-21T11:54:01;24.70;32.40
61323;DHT22;47203;48.428;11.974;2024-02-21T11:56:07;24.70;32.60
61323;DHT22;47203;48.428;11.974;2024-02-21T11:58:10;24.70;32.40
61323;DHT22;47203;48.428;11.974;2024-02-21T12:00:17;24.60;32.20
61323;DHT22;47203;48.428;11.974;2024-02-21T12:02:24;24.50;31.80
61323;DHT22;47203;48.428;11.974;2024-02-21T12:04:29;24.40;32.20
61323;DHT22;47203;48.428;11.974;2024-02-21T12:06:34;24.30;32.10
61323;DHT22;47203;48.428;11.974;2024-02-21T12:08:41;24.20;32.20
61323;DHT22;47203;48.428;11.974;2024-02-21T12:10:45;24.10;31.90
61323;DHT22;47203;48.428;11.974;2024-02-21T12:12:53;24.10;32.20
61323;DHT22;47203;48.428;11.974;2024-02-21T12:15:01;24.10;32.20
61323;DHT22;47203;48.428;11.974;2024-02-21T12:17:07;24.10;32.00
61323;DHT22;47203;48.428;11.974;2024-02-21T12:19:11;24.10;31.90
61323;DHT22;47203;48.428;11.974;2024-02-21T12:21:18;24.10;31.90
61323;DHT22;47203;48.428;11.974;2024-02-21T12:23:21;24.00;31.80
61323;DHT22;47203;48.428;11.974;2024-02-21T12:25:24;24.00;31.90
61323;DHT22;47203;48.428;11.974;2024-02-21T12:27:30;24.00;31.50
61323;DHT22;47203;48.428;11.974;2024-02-21T12:29:33;24.00;31.80
61323;DHT22;47203;48.428;11.974;2024-02-21T12:31:38;23.90;31.60
61323;DHT22;47203;48.428;11.974;2024-02-21T12:33:43;24.00;31.60
61323;DHT22;47203;48.428;11.974;2024-02-21T12:35:47;24.00;31.50
61323;DHT22;47203;48.428;11.974;2024-02-21T12:37:51;24.10;31.70
61323;DHT22;47203;48.428;11.974;2024-02-21T12:39:54;23.50;31.40
61323;DHT22;47203;48.428;11.974;2024-02-21T12:41:58;24.40;31.40
61323;DHT22;47203;48.428;11.974;2024-02-21T12:44:03;24.50;31.70
61323;DHT22;47203;48.428;11.974;2024-02-21T12:46:08;24.70;31.30
61323;DHT22;47203;48.428;11.974;2024-02-21T12:48:12;24.80;30.50
61323;DHT22;47203;48.428;11.974;2024-02-21T12:50:17;24.90;30.20
61323;DHT22;47203;48.428;11.974;2024-02-21T12:52:21;25.00;30.10
61323;DHT22;47203;48.428;11.974;2024-02-21T12:54:25;25.10;30.40
61323;DHT22;47203;48.428;11.974;2024-02-21T12:56:29;25.30;30.00
61323;DHT22;47203;48.428;11.974;2024-02-21T12:58:32;25.40;29.70
61323;DHT22;47203;48.428;11.974;2024-02-21T13:00:36;25.50;29.50
61323;DHT22;47203;48.428;11.974;2024-02-21T13:02:40;25.50;29.70